createdAt,value
2018-09-30T00:00:14.165Z,34.60
2018-09-30T00:00:52.293Z,30.90
2018-09-30T00:01:30.434Z,29.75
2018-09-30T00:02:08.540Z,31.37
2018-09-30T00:02:47.339Z,32.88
2018-09-30T00:03:27.002Z,31.87
2018-09-30T00:04:05.102Z,32.95
2018-09-30T00:04:44.168Z,31.47
2018-09-30T00:05:22.332Z,32.48
2018-09-30T00:06:00.381Z,32.73
2018-09-30T00:06:38.768Z,33.70
2018-09-30T00:07:16.966Z,33.80
2018-09-30T00:07:55.523Z,34.73
2018-09-30T00:08:33.690Z,33.35
2018-09-30T00:09:12.171Z,33.02
2018-09-30T00:09:51.526Z,33.95
2018-09-30T00:10:30.597Z,33.70
2018-09-30T00:11:08.845Z,35.13
2018-09-30T00:11:47.308Z,36.75
2018-09-30T00:12:25.316Z,34.67
2018-09-30T00:13:04.684Z,33.63
2018-09-30T00:13:42.584Z,36.03
2018-09-30T00:14:20.729Z,35.30
2018-09-30T00:14:58.812Z,42.00
2018-09-30T00:15:36.755Z,34.48
2018-09-30T00:16:14.762Z,35.20
2018-09-30T00:16:55.594Z,36.45
2018-09-30T00:17:33.960Z,34.50
2018-09-30T00:18:13.182Z,34.85
2018-09-30T00:18:51.277Z,34.55
2018-09-30T00:19:30.161Z,34.90
2018-09-30T00:20:08.639Z,36.03
2018-09-30T00:20:46.914Z,37.25
2018-09-30T00:21:25.144Z,35.30
2018-09-30T00:22:03.255Z,47.90
2018-09-30T00:22:41.733Z,46.67
2018-09-30T00:23:21.900Z,60.25
2018-09-30T00:24:03.984Z,39.67
2018-09-30T00:24:46.063Z,36.83
2018-09-30T00:25:28.256Z,36.03
2018-09-30T00:26:10.408Z,36.48
2018-09-30T00:26:52.677Z,37.83
2018-09-30T00:27:31.008Z,56.35
2018-09-30T00:28:08.854Z,50.38
2018-09-30T00:28:46.793Z,38.55
2018-09-30T00:29:25.172Z,41.90
2018-09-30T00:30:03.080Z,51.17
2018-09-30T00:30:41.222Z,39.20
2018-09-30T00:31:19.179Z,38.10
2018-09-30T00:31:57.297Z,42.30
2018-09-30T00:32:36.328Z,36.58
2018-09-30T00:33:14.170Z,34.95
2018-09-30T00:33:56.376Z,38.33
2018-09-30T00:34:34.446Z,53.60
2018-09-30T00:35:12.925Z,33.60
2018-09-30T00:35:52.303Z,43.80
2018-09-30T00:36:30.717Z,47.00
2018-09-30T00:37:09.138Z,38.23
2018-09-30T00:37:47.421Z,49.33
2018-09-30T00:38:25.409Z,38.25
2018-09-30T00:39:03.460Z,34.03
2018-09-30T00:39:41.317Z,66.93
2018-09-30T00:40:20.512Z,33.00
2018-09-30T00:40:58.465Z,32.75
2018-09-30T00:41:36.345Z,46.00
2018-09-30T00:42:14.181Z,35.10
2018-09-30T00:42:52.662Z,43.70
2018-09-30T00:43:30.524Z,48.98
2018-09-30T00:44:08.681Z,37.50
2018-09-30T00:44:47.734Z,37.67
2018-09-30T00:45:26.697Z,38.95
2018-09-30T00:46:04.756Z,61.37
2018-09-30T00:46:42.645Z,31.83
2018-09-30T00:47:20.803Z,33.85
2018-09-30T00:47:58.915Z,32.50
2018-09-30T00:48:36.769Z,35.73
2018-09-30T00:49:15.271Z,31.97
2018-09-30T00:49:53.982Z,42.85
2018-09-30T00:50:32.159Z,36.65
2018-09-30T00:51:10.345Z,32.42
2018-09-30T00:51:48.201Z,53.73
2018-09-30T00:52:26.434Z,33.53
2018-09-30T00:53:04.310Z,35.23
2018-09-30T00:53:42.122Z,33.60
2018-09-30T00:54:20.069Z,35.88
2018-09-30T00:54:57.911Z,32.57
2018-09-30T00:55:35.876Z,32.90
2018-09-30T00:56:13.817Z,33.80
2018-09-30T00:56:51.727Z,32.83
2018-09-30T00:57:29.687Z,34.85
2018-09-30T00:58:07.569Z,33.50
2018-09-30T00:58:45.478Z,34.53
2018-09-30T00:59:23.407Z,33.08
2018-09-30T01:00:01.344Z,33.30
2018-09-30T01:00:39.330Z,34.10
2018-09-30T01:01:17.137Z,33.48
2018-09-30T01:01:55.009Z,32.85
2018-09-30T01:02:32.965Z,33.13
2018-09-30T01:03:11.234Z,33.63
2018-09-30T01:03:49.453Z,32.50
2018-09-30T01:04:27.372Z,34.35
2018-09-30T01:05:05.256Z,34.73
2018-09-30T01:05:43.359Z,33.28
2018-09-30T01:06:21.593Z,32.28
2018-09-30T01:06:59.615Z,34.10
2018-09-30T01:07:38.081Z,35.23
2018-09-30T01:08:18.129Z,33.38
2018-09-30T01:08:56.515Z,32.50
2018-09-30T01:09:34.466Z,35.73
2018-09-30T01:10:12.635Z,35.35
2018-09-30T01:10:51.021Z,32.30
2018-09-30T01:11:29.972Z,32.93
2018-09-30T01:12:08.065Z,32.93
2018-09-30T01:12:47.455Z,33.10
2018-09-30T01:13:26.201Z,34.43
2018-09-30T01:14:05.353Z,34.05
2018-09-30T01:14:44.926Z,33.33
2018-09-30T01:15:23.504Z,34.23
2018-09-30T01:16:02.319Z,34.33
2018-09-30T01:16:40.770Z,35.60
2018-09-30T01:17:19.006Z,34.70
2018-09-30T01:17:59.303Z,34.60
2018-09-30T01:18:37.393Z,33.30
2018-09-30T01:19:16.609Z,33.70
2018-09-30T01:19:55.226Z,33.75
2018-09-30T01:20:33.930Z,32.25
2018-09-30T01:21:15.440Z,35.60
2018-09-30T01:21:54.068Z,34.60
2018-09-30T01:22:32.574Z,33.50
2018-09-30T01:23:10.864Z,35.10
2018-09-30T01:23:50.656Z,34.83
2018-09-30T01:24:30.434Z,35.50
2018-09-30T01:25:10.761Z,35.55
2018-09-30T01:25:49.119Z,36.53
2018-09-30T01:26:27.563Z,32.60
2018-09-30T01:27:06.284Z,35.63
2018-09-30T01:27:45.319Z,33.25
2018-09-30T01:28:23.846Z,35.28
2018-09-30T01:29:02.943Z,34.98
2018-09-30T01:29:41.154Z,36.95
2018-09-30T01:30:21.001Z,32.43
2018-09-30T01:30:59.184Z,35.53
2018-09-30T01:31:37.112Z,36.13
2018-09-30T01:32:15.764Z,34.50
2018-09-30T01:32:53.915Z,35.10
2018-09-30T01:33:32.522Z,36.17
2018-09-30T01:34:10.899Z,36.53
2018-09-30T01:34:49.354Z,34.85
2018-09-30T01:35:27.355Z,37.23
2018-09-30T01:36:05.532Z,37.58
2018-09-30T01:36:43.694Z,37.50
2018-09-30T01:37:23.354Z,36.85
2018-09-30T01:38:01.710Z,36.48
2018-09-30T01:38:40.273Z,34.87
2018-09-30T01:39:19.351Z,36.25
2018-09-30T01:39:59.012Z,35.85
2018-09-30T01:40:37.051Z,37.80
2018-09-30T01:41:15.825Z,37.35
2018-09-30T01:41:53.921Z,37.35
2018-09-30T01:42:32.174Z,38.90
2018-09-30T01:43:10.020Z,38.85
2018-09-30T01:43:48.425Z,36.65
2018-09-30T01:44:27.911Z,38.98
2018-09-30T01:45:07.019Z,38.30
2018-09-30T01:45:45.375Z,38.02
2018-09-30T01:46:23.653Z,40.03
2018-09-30T01:47:02.327Z,39.35
2018-09-30T01:47:40.880Z,39.80
2018-09-30T01:48:19.086Z,37.90
2018-09-30T01:48:57.241Z,39.78
2018-09-30T01:49:35.425Z,39.40
2018-09-30T01:50:20.145Z,37.63
2018-09-30T01:50:58.333Z,37.60
2018-09-30T01:51:36.481Z,38.85
2018-09-30T01:52:23.264Z,38.80
2018-09-30T01:53:02.408Z,39.38
2018-09-30T01:53:45.273Z,36.80
2018-09-30T01:54:27.896Z,38.08
2018-09-30T01:55:05.862Z,37.80
2018-09-30T01:55:44.814Z,37.65
2018-09-30T01:56:23.049Z,39.60
2018-09-30T01:57:01.085Z,39.80
2018-09-30T01:57:40.073Z,38.40
2018-09-30T01:58:17.925Z,37.93
2018-09-30T01:58:55.839Z,37.70
2018-09-30T01:59:33.825Z,42.90
2018-09-30T02:00:13.071Z,41.13
2018-09-30T02:00:51.920Z,40.10
2018-09-30T02:01:32.052Z,38.17
2018-09-30T02:02:10.018Z,40.28
2018-09-30T02:02:49.016Z,39.23
2018-09-30T02:03:26.941Z,39.88
2018-09-30T02:04:04.777Z,39.45
2018-09-30T02:04:43.812Z,40.13
2018-09-30T02:05:22.808Z,37.08
2018-09-30T02:06:01.541Z,38.35
2018-09-30T02:06:39.416Z,38.90
2018-09-30T02:07:17.466Z,36.73
2018-09-30T02:07:55.589Z,36.30
2018-09-30T02:08:33.553Z,36.80
2018-09-30T02:09:11.335Z,38.40
2018-09-30T02:09:49.244Z,38.28
2018-09-30T02:10:27.292Z,37.90
2018-09-30T02:11:06.561Z,38.83
2018-09-30T02:11:45.480Z,38.50
2018-09-30T02:12:23.494Z,40.70
2018-09-30T02:13:01.469Z,38.08
2018-09-30T02:13:39.369Z,39.30
2018-09-30T02:14:17.211Z,37.08
2018-09-30T02:14:55.331Z,38.28
2018-09-30T02:15:34.384Z,38.92
2018-09-30T02:16:12.302Z,39.98
2018-09-30T02:16:52.667Z,38.30
2018-09-30T02:17:30.525Z,38.55
2018-09-30T02:18:09.522Z,41.30
2018-09-30T02:18:47.505Z,39.38
2018-09-30T02:19:25.403Z,38.63
2018-09-30T02:20:03.445Z,38.55
2018-09-30T02:20:41.349Z,39.20
2018-09-30T02:21:19.244Z,38.90
2018-09-30T02:22:00.143Z,38.75
2018-09-30T02:22:38.028Z,39.83
2018-09-30T02:23:15.908Z,36.48
2018-09-30T02:23:55.135Z,38.58
2018-09-30T02:24:33.474Z,39.65
2018-09-30T02:25:11.587Z,39.08
2018-09-30T02:25:49.525Z,40.33
2018-09-30T02:26:27.429Z,40.88
2018-09-30T02:27:05.304Z,40.20
2018-09-30T02:27:43.179Z,40.75
2018-09-30T02:28:21.104Z,40.48
2018-09-30T02:28:59.113Z,46.35
2018-09-30T02:29:36.970Z,44.30
2018-09-30T02:30:15.495Z,45.80
2018-09-30T02:30:53.342Z,43.52
2018-09-30T02:31:31.460Z,44.30
2018-09-30T02:32:09.309Z,46.45
2018-09-30T02:32:47.184Z,46.55
2018-09-30T02:33:25.173Z,42.27
2018-09-30T02:34:03.219Z,44.63
2018-09-30T02:34:42.224Z,44.93
2018-09-30T02:35:20.696Z,46.53
2018-09-30T02:35:58.585Z,46.18
2018-09-30T02:36:37.352Z,48.00
2018-09-30T02:37:15.731Z,46.30
2018-09-30T02:37:53.551Z,50.00
2018-09-30T02:38:31.477Z,50.58
2018-09-30T02:39:10.605Z,47.27
2018-09-30T02:39:48.569Z,48.40
2018-09-30T02:40:26.434Z,50.25
2018-09-30T02:41:05.285Z,49.70
2018-09-30T02:41:43.184Z,49.98
2018-09-30T02:42:21.027Z,48.63
2018-09-30T02:42:59.944Z,49.95
2018-09-30T02:43:37.785Z,52.73
2018-09-30T02:44:16.389Z,53.70
2018-09-30T02:44:54.218Z,54.95
2018-09-30T02:45:33.895Z,54.63
2018-09-30T02:46:11.944Z,54.83
2018-09-30T02:46:49.784Z,53.02
2018-09-30T02:47:27.772Z,53.33
2018-09-30T02:48:05.910Z,59.70
2018-09-30T02:48:43.788Z,52.60
2018-09-30T02:49:21.677Z,54.40
2018-09-30T02:49:59.535Z,55.98
2018-09-30T02:50:37.385Z,54.73
2018-09-30T02:51:16.396Z,84.03
2018-09-30T02:51:54.432Z,54.00
2018-09-30T02:52:32.244Z,54.45
2018-09-30T02:53:11.107Z,66.37
2018-09-30T02:53:49.073Z,55.65
2018-09-30T02:54:26.883Z,54.48
2018-09-30T02:55:04.690Z,53.60
2018-09-30T02:55:42.550Z,52.00
2018-09-30T02:56:20.633Z,56.97
2018-09-30T02:56:58.709Z,54.33
2018-09-30T02:57:36.595Z,55.67
2018-09-30T02:58:15.265Z,51.35
2018-09-30T02:58:53.041Z,53.73
2018-09-30T02:59:31.176Z,53.00
2018-09-30T03:00:09.073Z,52.10
2018-09-30T03:00:46.923Z,54.33
2018-09-30T03:01:25.007Z,54.63
2018-09-30T03:02:02.932Z,58.75
2018-09-30T03:02:40.797Z,59.43
2018-09-30T03:03:18.553Z,55.48
2018-09-30T03:03:56.673Z,56.88
2018-09-30T03:04:34.577Z,56.77
2018-09-30T03:05:12.474Z,52.83
2018-09-30T03:05:50.417Z,55.30
2018-09-30T03:06:32.513Z,54.05
2018-09-30T03:07:15.354Z,54.15
2018-09-30T03:07:57.671Z,53.23
2018-09-30T03:08:40.322Z,69.17
2018-09-30T03:09:19.831Z,89.05
2018-09-30T03:09:57.622Z,57.67
2018-09-30T03:10:36.122Z,57.80
2018-09-30T03:11:13.933Z,57.73
2018-09-30T03:11:51.796Z,58.25
2018-09-30T03:12:30.385Z,56.25
2018-09-30T03:13:08.425Z,54.03
2018-09-30T03:13:46.673Z,53.63
2018-09-30T03:14:24.683Z,52.13
2018-09-30T03:15:02.763Z,54.73
2018-09-30T03:15:40.800Z,54.18
2018-09-30T03:16:19.709Z,51.33
2018-09-30T03:16:57.604Z,51.77
2018-09-30T03:17:35.506Z,52.40
2018-09-30T03:18:14.672Z,50.65
2018-09-30T03:18:52.577Z,50.38
2018-09-30T03:19:30.397Z,50.15
2018-09-30T03:20:08.336Z,52.78
2018-09-30T03:20:47.246Z,48.58
2018-09-30T03:21:27.138Z,50.05
2018-09-30T03:22:04.987Z,49.70
2018-09-30T03:22:43.127Z,48.73
2018-09-30T03:23:21.140Z,49.18
2018-09-30T03:23:59.048Z,48.75
2018-09-30T03:24:37.909Z,46.23
2018-09-30T03:25:15.824Z,46.53
2018-09-30T03:25:54.455Z,49.37
2018-09-30T03:26:32.392Z,44.30
2018-09-30T03:27:10.511Z,48.33
2018-09-30T03:27:48.497Z,45.77
2018-09-30T03:28:26.397Z,49.40
2018-09-30T03:29:04.665Z,48.10
2018-09-30T03:29:43.153Z,47.63
2018-09-30T03:30:20.999Z,51.80
2018-09-30T03:31:00.187Z,47.55
2018-09-30T03:31:42.521Z,47.88
2018-09-30T03:32:20.512Z,46.30
2018-09-30T03:32:58.374Z,47.73
2018-09-30T03:33:36.822Z,46.40
2018-09-30T03:34:14.765Z,45.75
2018-09-30T03:34:52.633Z,45.43
2018-09-30T03:35:30.544Z,44.80
2018-09-30T03:36:08.460Z,43.70
2018-09-30T03:36:46.282Z,47.03
2018-09-30T03:37:24.274Z,43.78
2018-09-30T03:38:02.315Z,45.00
2018-09-30T03:38:40.168Z,44.77
2018-09-30T03:39:18.058Z,44.98
2018-09-30T03:39:55.876Z,45.92
2018-09-30T03:40:33.989Z,47.45
2018-09-30T03:41:11.964Z,46.65
2018-09-30T03:41:50.156Z,44.10
2018-09-30T03:42:28.181Z,45.80
2018-09-30T03:43:07.470Z,44.50
2018-09-30T03:43:45.381Z,46.77
2018-09-30T03:44:23.229Z,45.38
2018-09-30T03:45:01.281Z,48.50
2018-09-30T03:45:39.209Z,44.45
2018-09-30T03:46:17.035Z,45.20
2018-09-30T03:46:54.997Z,45.95
2018-09-30T03:47:33.774Z,45.53
2018-09-30T03:48:11.615Z,43.80
2018-09-30T03:48:50.187Z,47.33
2018-09-30T03:49:29.315Z,47.70
2018-09-30T03:50:07.413Z,46.98
2018-09-30T03:50:45.620Z,45.70
2018-09-30T03:51:24.269Z,45.30
2018-09-30T03:52:02.407Z,45.37
2018-09-30T03:52:40.477Z,44.40
2018-09-30T03:53:19.845Z,46.27
2018-09-30T03:53:57.752Z,43.25
2018-09-30T03:54:35.772Z,46.03
2018-09-30T03:55:13.622Z,45.50
2018-09-30T03:55:51.794Z,47.23
2018-09-30T03:56:29.783Z,47.73
2018-09-30T03:57:08.932Z,45.45
2018-09-30T03:57:47.029Z,42.75
2018-09-30T03:58:24.955Z,42.67
2018-09-30T03:59:02.942Z,41.33
2018-09-30T03:59:41.248Z,43.80
2018-09-30T04:00:20.133Z,42.30
2018-09-30T04:00:59.199Z,42.30
2018-09-30T04:01:37.019Z,42.30
2018-09-30T04:02:14.938Z,38.90
2018-09-30T04:02:52.742Z,40.73
2018-09-30T04:03:30.791Z,40.63
2018-09-30T04:04:08.709Z,41.60
2018-09-30T04:04:46.708Z,41.53
2018-09-30T04:05:24.695Z,41.17
2018-09-30T04:06:02.608Z,42.10
2018-09-30T04:06:41.758Z,41.30
2018-09-30T04:07:19.622Z,41.27
2018-09-30T04:07:57.454Z,40.03
2018-09-30T04:08:38.224Z,39.45
2018-09-30T04:09:16.602Z,40.53
2018-09-30T04:09:55.832Z,46.17
2018-09-30T04:10:36.510Z,41.30
2018-09-30T04:11:15.171Z,43.73
2018-09-30T04:11:53.410Z,43.67
2018-09-30T04:12:31.732Z,40.60
2018-09-30T04:13:10.038Z,41.90
2018-09-30T04:13:49.236Z,41.48
2018-09-30T04:14:27.437Z,41.97
2018-09-30T04:15:06.533Z,41.47
2018-09-30T04:15:45.307Z,40.90
2018-09-30T04:16:23.342Z,39.57
2018-09-30T04:17:01.272Z,41.08
2018-09-30T04:17:39.169Z,42.17
2018-09-30T04:18:17.127Z,41.80
2018-09-30T04:18:55.017Z,40.40
2018-09-30T04:19:32.852Z,40.97
2018-09-30T04:20:10.941Z,41.93
2018-09-30T04:20:50.686Z,40.87
2018-09-30T04:21:29.481Z,40.43
2018-09-30T04:22:11.834Z,42.38
2018-09-30T04:22:49.715Z,40.00
2018-09-30T04:23:28.481Z,41.20
2018-09-30T04:24:10.601Z,39.88
2018-09-30T04:24:48.653Z,40.93
2018-09-30T04:25:26.552Z,41.77
2018-09-30T04:26:04.358Z,40.00
2018-09-30T04:26:44.132Z,39.03
2018-09-30T04:27:22.043Z,42.70
2018-09-30T04:28:00.452Z,38.90
2018-09-30T04:28:38.513Z,35.83
2018-09-30T04:29:17.743Z,38.80
2018-09-30T04:29:55.599Z,38.00
2018-09-30T04:30:34.821Z,36.03
2018-09-30T04:31:12.861Z,36.07
2018-09-30T04:31:51.067Z,36.30
2018-09-30T04:32:29.086Z,36.37
2018-09-30T04:33:07.522Z,34.70
2018-09-30T04:33:45.988Z,34.17
2018-09-30T04:34:24.454Z,36.53
2018-09-30T04:35:02.288Z,35.13
2018-09-30T04:35:40.173Z,36.63
2018-09-30T04:36:17.934Z,36.10
2018-09-30T04:36:55.757Z,35.03
2018-09-30T04:37:34.582Z,34.73
2018-09-30T04:38:12.616Z,36.07
2018-09-30T04:38:50.597Z,35.17
2018-09-30T04:39:28.413Z,35.53
2018-09-30T04:40:06.452Z,36.13
2018-09-30T04:40:45.350Z,35.37
2018-09-30T04:41:23.348Z,36.60
2018-09-30T04:42:02.637Z,34.40
2018-09-30T04:42:40.514Z,36.73
2018-09-30T04:43:18.569Z,35.33
2018-09-30T04:43:56.513Z,34.98
2018-09-30T04:44:34.365Z,36.67
2018-09-30T04:45:12.478Z,36.67
2018-09-30T04:45:50.300Z,35.00
2018-09-30T04:46:28.447Z,34.73
2018-09-30T04:47:06.259Z,35.80
2018-09-30T04:47:44.135Z,37.90
2018-09-30T04:48:23.489Z,36.83
2018-09-30T04:49:01.278Z,38.17
2018-09-30T04:49:39.236Z,37.30
2018-09-30T04:50:17.326Z,37.10
2018-09-30T04:50:55.187Z,35.20
2018-09-30T04:51:33.158Z,35.60
2018-09-30T04:52:11.559Z,37.00
2018-09-30T04:52:51.084Z,39.13
2018-09-30T04:53:28.950Z,37.37
2018-09-30T04:54:06.810Z,37.17
2018-09-30T04:54:44.744Z,37.97
2018-09-30T04:55:23.070Z,38.07
2018-09-30T04:56:01.052Z,36.50
2018-09-30T04:56:39.472Z,36.43
2018-09-30T04:57:18.214Z,37.03
2018-09-30T04:57:57.255Z,36.20
2018-09-30T04:58:35.914Z,35.90
2018-09-30T04:59:13.792Z,37.20
2018-09-30T04:59:51.574Z,37.60
2018-09-30T05:00:29.391Z,38.60
2018-09-30T05:01:07.341Z,37.47
2018-09-30T05:01:46.402Z,36.43
2018-09-30T05:02:24.348Z,37.20
2018-09-30T05:03:02.579Z,37.47
2018-09-30T05:03:40.468Z,37.27
2018-09-30T05:04:18.781Z,35.47
2018-09-30T05:04:57.609Z,36.10
2018-09-30T05:05:35.558Z,38.23
2018-09-30T05:06:13.952Z,37.70
2018-09-30T05:06:58.685Z,36.27
2018-09-30T05:07:37.527Z,37.17
2018-09-30T05:08:15.511Z,37.50
2018-09-30T05:08:53.541Z,36.47
2018-09-30T05:09:31.452Z,37.90
2018-09-30T05:10:09.352Z,37.17
2018-09-30T05:10:47.268Z,37.33
2018-09-30T05:11:25.426Z,36.77
2018-09-30T05:12:03.459Z,40.07
2018-09-30T05:12:41.500Z,37.60
2018-09-30T05:13:19.363Z,38.40
2018-09-30T05:13:57.180Z,39.93
2018-09-30T05:14:35.122Z,37.03
2018-09-30T05:15:12.990Z,36.90
2018-09-30T05:15:50.964Z,38.37
2018-09-30T05:16:28.896Z,39.80
2018-09-30T05:17:06.741Z,39.10
2018-09-30T05:17:44.590Z,38.70
2018-09-30T05:18:23.720Z,34.80
2018-09-30T05:19:02.015Z,38.13
2018-09-30T05:19:39.976Z,39.50
2018-09-30T05:20:17.869Z,38.83
2018-09-30T05:20:55.785Z,37.13
2018-09-30T05:21:33.668Z,37.40
2018-09-30T05:22:12.094Z,39.30
2018-09-30T05:22:50.019Z,39.00
2018-09-30T05:23:29.067Z,38.53
2018-09-30T05:24:07.925Z,38.30
2018-09-30T05:24:46.058Z,36.07
2018-09-30T05:25:24.226Z,37.20
2018-09-30T05:26:02.321Z,37.83
2018-09-30T05:26:40.265Z,37.57
2018-09-30T05:27:18.527Z,36.60
2018-09-30T05:27:56.906Z,36.50
2018-09-30T05:28:34.822Z,35.40
2018-09-30T05:29:12.686Z,35.30
2018-09-30T05:29:50.614Z,34.57
2018-09-30T05:30:28.596Z,33.83
2018-09-30T05:31:06.773Z,35.40
2018-09-30T05:31:44.601Z,35.13
2018-09-30T05:32:22.496Z,35.77
2018-09-30T05:33:00.352Z,36.50
2018-09-30T05:33:38.356Z,35.50
2018-09-30T05:34:16.206Z,34.67
2018-09-30T05:34:54.056Z,35.45
2018-09-30T05:35:31.961Z,35.03
2018-09-30T05:36:12.947Z,34.27
2018-09-30T05:36:50.792Z,33.57
2018-09-30T05:37:28.786Z,34.37
2018-09-30T05:38:07.242Z,34.73
2018-09-30T05:38:45.194Z,35.60
2018-09-30T05:39:23.108Z,32.60
2018-09-30T05:40:01.029Z,37.70
2018-09-30T05:40:39.207Z,37.83
2018-09-30T05:41:17.032Z,36.40
2018-09-30T05:41:55.702Z,35.60
2018-09-30T05:42:33.650Z,36.67
2018-09-30T05:43:13.124Z,36.53
2018-09-30T05:43:50.998Z,36.53
2018-09-30T05:44:29.425Z,33.57
2018-09-30T05:45:07.373Z,37.40
2018-09-30T05:45:45.285Z,35.40
2018-09-30T05:46:23.189Z,34.20
2018-09-30T05:47:01.216Z,34.00
2018-09-30T05:47:39.198Z,38.00
2018-09-30T05:48:17.224Z,34.13
2018-09-30T05:48:56.424Z,36.57
2018-09-30T05:49:34.409Z,35.77
2018-09-30T05:50:12.449Z,36.43
2018-09-30T05:50:50.628Z,34.43
2018-09-30T05:51:28.582Z,34.53
2018-09-30T05:52:07.394Z,36.03
2018-09-30T05:52:46.329Z,36.00
2018-09-30T05:53:24.102Z,35.40
2018-09-30T05:54:01.977Z,33.43
2018-09-30T05:54:39.843Z,35.50
2018-09-30T05:55:17.760Z,35.40
2018-09-30T05:55:55.676Z,35.93
2018-09-30T05:56:34.326Z,36.10
2018-09-30T05:57:13.299Z,37.07
2018-09-30T05:57:53.626Z,36.17
2018-09-30T05:58:31.946Z,35.63
2018-09-30T05:59:09.886Z,36.87
2018-09-30T05:59:47.721Z,36.83
2018-09-30T06:00:25.458Z,34.23
2018-09-30T06:01:03.358Z,36.20
2018-09-30T06:01:43.930Z,36.63
2018-09-30T06:02:21.789Z,36.30
2018-09-30T06:02:59.864Z,37.00
2018-09-30T06:03:37.732Z,37.97
2018-09-30T06:04:15.830Z,36.20
2018-09-30T06:04:53.704Z,35.40
2018-09-30T06:05:32.511Z,33.70
2018-09-30T06:06:10.427Z,37.27
2018-09-30T06:06:48.354Z,34.87
2018-09-30T06:07:27.762Z,33.93
2018-09-30T06:08:05.732Z,36.10
2018-09-30T06:08:43.573Z,34.30
2018-09-30T06:09:21.513Z,34.10
2018-09-30T06:09:59.452Z,34.63
2018-09-30T06:10:37.415Z,33.77
2018-09-30T06:11:16.000Z,34.00
2018-09-30T06:11:53.812Z,33.40
2018-09-30T06:12:31.688Z,32.50
2018-09-30T06:13:09.473Z,33.30
2018-09-30T06:13:47.424Z,32.17
2018-09-30T06:14:25.532Z,35.10
2018-09-30T06:15:03.425Z,34.13
2018-09-30T06:15:41.305Z,34.10
2018-09-30T06:16:19.162Z,33.20
2018-09-30T06:16:58.065Z,34.80
2018-09-30T06:17:35.885Z,34.13
2018-09-30T06:18:13.853Z,33.07
2018-09-30T06:18:51.797Z,36.23
2018-09-30T06:19:30.681Z,34.77
2018-09-30T06:20:10.699Z,34.07
2018-09-30T06:20:49.582Z,32.93
2018-09-30T06:21:28.508Z,32.40
2018-09-30T06:22:07.691Z,32.47
2018-09-30T06:22:47.505Z,33.13
2018-09-30T06:23:25.447Z,34.87
2018-09-30T06:24:05.023Z,35.10
2018-09-30T06:24:43.244Z,33.90
2018-09-30T06:25:21.165Z,33.90
2018-09-30T06:26:04.626Z,33.47
2018-09-30T06:26:42.825Z,32.90
2018-09-30T06:27:21.245Z,32.40
2018-09-30T06:27:59.274Z,32.80
2018-09-30T06:28:37.356Z,33.30
2018-09-30T06:29:16.947Z,32.93
2018-09-30T06:29:54.871Z,34.30
2018-09-30T06:30:33.773Z,34.13
2018-09-30T06:31:11.668Z,32.83
2018-09-30T06:31:49.633Z,35.37
2018-09-30T06:32:27.497Z,35.50
2018-09-30T06:33:05.562Z,33.93
2018-09-30T06:33:43.489Z,34.00
2018-09-30T06:34:22.358Z,34.07
2018-09-30T06:35:00.198Z,34.30
2018-09-30T06:35:38.105Z,33.37
2018-09-30T06:36:17.700Z,33.23
2018-09-30T06:36:55.538Z,35.23
2018-09-30T06:37:33.389Z,33.60
2018-09-30T06:38:11.398Z,32.77
2018-09-30T06:38:49.656Z,35.50
2018-09-30T06:39:27.805Z,35.20
2018-09-30T06:40:06.392Z,34.60
2018-09-30T06:40:44.256Z,33.37
2018-09-30T06:41:22.167Z,36.37
2018-09-30T06:42:00.996Z,34.30
2018-09-30T06:42:39.109Z,35.33
2018-09-30T06:43:16.982Z,35.57
2018-09-30T06:43:55.030Z,34.73
2018-09-30T06:44:34.802Z,34.10
2018-09-30T06:45:13.106Z,36.23
2018-09-30T06:45:50.935Z,36.90
2018-09-30T06:46:28.870Z,37.20
2018-09-30T06:47:06.969Z,37.20
2018-09-30T06:47:44.840Z,34.20
2018-09-30T06:48:22.701Z,34.73
2018-09-30T06:49:00.820Z,34.80
2018-09-30T06:49:39.093Z,36.10
2018-09-30T06:51:20.288Z,34.97
2018-09-30T06:51:58.169Z,34.70
2018-09-30T06:52:35.989Z,34.03
2018-09-30T06:53:13.879Z,33.70
2018-09-30T06:53:51.760Z,34.63
2018-09-30T06:54:29.688Z,34.57
2018-09-30T06:55:08.729Z,36.83
2018-09-30T06:55:46.649Z,34.60
2018-09-30T06:56:25.619Z,33.10
2018-09-30T06:57:03.552Z,34.50
2018-09-30T06:57:41.367Z,31.83
2018-09-30T06:58:19.251Z,34.90
2018-09-30T06:58:57.165Z,32.60
2018-09-30T06:59:35.976Z,32.07
2018-09-30T07:00:13.844Z,33.10
2018-09-30T07:00:51.716Z,31.17
2018-09-30T07:01:29.712Z,29.57
2018-09-30T07:02:07.589Z,31.13
2018-09-30T07:02:45.580Z,30.73
2018-09-30T07:03:23.404Z,30.20
2018-09-30T07:04:01.488Z,32.47
2018-09-30T07:04:39.405Z,30.43
2018-09-30T07:05:17.508Z,31.20
2018-09-30T07:05:55.367Z,31.97
2018-09-30T07:06:33.188Z,30.20
2018-09-30T07:07:10.999Z,28.67
2018-09-30T07:07:48.801Z,28.87
2018-09-30T07:08:26.898Z,28.67
2018-09-30T07:09:06.426Z,27.20
2018-09-30T07:09:44.377Z,27.00
2018-09-30T07:10:22.330Z,26.90
2018-09-30T07:11:00.600Z,28.60
2018-09-30T07:11:38.508Z,26.30
2018-09-30T07:12:16.592Z,26.07
2018-09-30T07:12:54.340Z,28.90
2018-09-30T07:13:32.214Z,26.77
2018-09-30T07:14:10.388Z,27.43
2018-09-30T07:14:49.254Z,26.97
2018-09-30T07:15:27.180Z,28.13
2018-09-30T07:16:05.110Z,27.60
2018-09-30T07:16:43.014Z,29.10
2018-09-30T07:17:20.965Z,28.17
2018-09-30T07:17:58.880Z,29.07
2018-09-30T07:18:37.113Z,28.60
2018-09-30T07:19:14.941Z,28.60
2018-09-30T07:19:52.712Z,29.47
2018-09-30T07:20:30.743Z,30.80
2018-09-30T07:21:08.946Z,30.90
2018-09-30T07:21:46.915Z,32.30
2018-09-30T07:22:25.044Z,32.87
2018-09-30T07:23:03.190Z,33.00
2018-09-30T07:23:41.156Z,33.40
2018-09-30T07:24:18.991Z,34.63
2018-09-30T07:24:56.824Z,37.50
2018-09-30T07:25:34.781Z,34.60
2018-09-30T07:26:12.699Z,36.33
2018-09-30T07:26:51.680Z,35.07
2018-09-30T07:27:29.601Z,35.30
2018-09-30T07:28:08.819Z,37.30
2018-09-30T07:28:46.881Z,35.23
2018-09-30T07:29:24.654Z,36.63
2018-09-30T07:30:02.590Z,35.57
2018-09-30T07:30:40.469Z,36.27
2018-09-30T07:31:18.667Z,35.13
2018-09-30T07:31:56.512Z,35.40
2018-09-30T07:32:34.741Z,35.40
2018-09-30T07:33:14.855Z,36.40
2018-09-30T07:33:53.726Z,36.33
2018-09-30T07:34:32.703Z,36.50
2018-09-30T07:35:10.845Z,36.10
2018-09-30T07:35:48.772Z,37.00
2018-09-30T07:36:27.037Z,37.73
2018-09-30T07:37:04.815Z,36.20
2018-09-30T07:37:42.705Z,35.53
2018-09-30T07:38:20.605Z,35.17
2018-09-30T07:38:58.484Z,36.00
2018-09-30T07:39:36.599Z,33.37
2018-09-30T07:40:14.700Z,34.90
2018-09-30T07:40:52.738Z,37.73
2018-09-30T07:41:30.773Z,36.60
2018-09-30T07:42:08.700Z,34.90
2018-09-30T07:42:46.512Z,39.20
2018-09-30T07:43:24.445Z,35.77
2018-09-30T07:44:02.340Z,33.83
2018-09-30T07:44:40.242Z,35.70
2018-09-30T07:45:18.215Z,36.77
2018-09-30T07:45:56.104Z,37.50
2018-09-30T07:46:34.102Z,34.77
2018-09-30T07:47:12.082Z,37.53
2018-09-30T07:47:49.944Z,37.60
2018-09-30T07:48:27.821Z,35.60
2018-09-30T07:49:05.706Z,35.00
2018-09-30T07:49:43.630Z,36.57
2018-09-30T07:50:21.558Z,34.23
2018-09-30T07:50:59.498Z,36.60
2018-09-30T07:51:37.481Z,35.33
2018-09-30T07:52:15.393Z,37.37
2018-09-30T07:52:54.392Z,35.30
2018-09-30T07:53:33.171Z,36.87
2018-09-30T07:54:11.028Z,36.50
2018-09-30T07:54:48.860Z,36.50
2018-09-30T07:55:26.778Z,35.77
2018-09-30T07:56:04.615Z,35.07
2018-09-30T07:56:42.611Z,35.50
2018-09-30T07:57:20.465Z,35.00
2018-09-30T07:57:58.776Z,34.73
2018-09-30T07:58:36.684Z,34.77
2018-09-30T07:59:16.006Z,34.67
2018-09-30T07:59:53.909Z,34.80
2018-09-30T08:00:31.736Z,35.47
2018-09-30T08:01:09.727Z,33.37
2018-09-30T08:01:47.668Z,33.90
2018-09-30T08:02:25.545Z,34.37
2018-09-30T08:03:04.318Z,35.43
2018-09-30T08:03:42.173Z,34.23
2018-09-30T08:04:20.957Z,34.67
2018-09-30T08:04:58.976Z,36.20
2018-09-30T08:05:36.836Z,34.40
2018-09-30T08:09:17.597Z,36.77
2018-09-30T08:09:55.543Z,34.70
2018-09-30T08:10:34.903Z,36.30
2018-09-30T08:11:16.203Z,38.20
2018-09-30T08:11:54.825Z,37.37
2018-09-30T08:12:32.655Z,37.57
2018-09-30T08:13:11.722Z,33.67
2018-09-30T08:13:49.742Z,34.80
2018-09-30T08:14:27.496Z,36.20
2018-09-30T08:15:07.297Z,33.77
2018-09-30T08:15:45.266Z,35.10
2018-09-30T08:16:23.263Z,33.23
2018-09-30T08:17:02.089Z,33.30
2018-09-30T08:17:40.210Z,33.33
2018-09-30T08:18:18.387Z,33.07